sensor_id;sensor_type;location;lat;lon;timestamp;P1;durP1;ratioP1;P2;durP2;ratioP2
11731;SDS011;5922;53.734;10.258;2023-11-19T00:00:58;7.33;;;5.43;;
11731;SDS011;5922;53.734;10.258;2023-11-19T00:03:25;5.83;;;4.73;;
11731;SDS011;5922;53.734;10.258;2023-11-19T00:05:53;5.43;;;4.90;;
11731;SDS011;5922;53.734;10.258;2023-11-19T00:08:20;6.43;;;5.00;;
11731;SDS011;5922;53.734;10.258;2023-11-19T00:10:51;5.47;;;4.80;;
11731;SDS011;5922;53.734;10.258;2023-11-19T00:13:18;4.90;;;3.90;;
11731;SDS011;5922;53.734;10.258;2023-11-19T00:15:46;6.70;;;4.90;;
11731;SDS011;5922;53.734;10.258;2023-11-19T00:18:13;5.43;;;4.03;;
11731;SDS011;5922;53.734;10.258;2023-11-19T00:20:41;5.10;;;4.47;;
11731;SDS011;5922;53.734;10.258;2023-11-19T00:23:09;5.73;;;4.80;;
11731;SDS011;5922;53.734;10.258;2023-11-19T00:25:37;4.83;;;4.30;;
11731;SDS011;5922;53.734;10.258;2023-11-19T00:28:06;5.10;;;4.07;;
11731;SDS011;5922;53.734;10.258;2023-11-19T00:30:33;6.33;;;4.00;;
11731;SDS011;5922;53.734;10.258;2023-11-19T00:33:01;4.40;;;4.00;;
11731;SDS011;5922;53.734;10.258;2023-11-19T00:35:27;5.60;;;4.00;;
11731;SDS011;5922;53.734;10.258;2023-11-19T00:37:56;4.57;;;3.70;;
11731;SDS011;5922;53.734;10.258;2023-11-19T00:40:24;4.10;;;3.53;;
11731;SDS011;5922;53.734;10.258;2023-11-19T00:42:51;4.13;;;3.53;;
11731;SDS011;5922;53.734;10.258;2023-11-19T00:45:20;3.90;;;3.50;;
11731;SDS011;5922;53.734;10.258;2023-11-19T00:47:48;4.57;;;3.50;;
11731;SDS011;5922;53.734;10.258;2023-11-19T00:50:16;3.30;;;2.90;;
11731;SDS011;5922;53.734;10.258;2023-11-19T00:52:48;3.80;;;3.07;;
11731;SDS011;5922;53.734;10.258;2023-11-19T00:55:18;4.47;;;3.17;;
11731;SDS011;5922;53.734;10.258;2023-11-19T00:57:47;3.40;;;3.00;;
11731;SDS011;5922;53.734;10.258;2023-11-19T01:00:16;3.83;;;3.00;;
11731;SDS011;5922;53.734;10.258;2023-11-19T01:02:51;3.07;;;2.60;;
11731;SDS011;5922;53.734;10.258;2023-11-19T01:05:26;2.50;;;2.30;;
11731;SDS011;5922;53.734;10.258;2023-11-19T01:07:53;3.07;;;2.77;;
11731;SDS011;5922;53.734;10.258;2023-11-19T01:10:21;3.50;;;2.73;;
11731;SDS011;5922;53.734;10.258;2023-11-19T01:12:48;2.60;;;2.40;;
11731;SDS011;5922;53.734;10.258;2023-11-19T01:15:21;2.77;;;2.53;;
11731;SDS011;5922;53.734;10.258;2023-11-19T01:17:56;3.33;;;2.37;;
11731;SDS011;5922;53.734;10.258;2023-11-19T01:20:27;2.40;;;2.20;;
11731;SDS011;5922;53.734;10.258;2023-11-19T01:22:54;3.47;;;2.63;;
11731;SDS011;5922;53.734;10.258;2023-11-19T01:25:21;2.43;;;2.23;;
11731;SDS011;5922;53.734;10.258;2023-11-19T01:27:49;2.47;;;2.20;;
11731;SDS011;5922;53.734;10.258;2023-11-19T01:30:18;2.27;;;1.80;;
11731;SDS011;5922;53.734;10.258;2023-11-19T01:32:45;2.20;;;2.00;;
11731;SDS011;5922;53.734;10.258;2023-11-19T01:35:16;2.23;;;2.03;;
11731;SDS011;5922;53.734;10.258;2023-11-19T01:37:47;2.27;;;1.80;;
11731;SDS011;5922;53.734;10.258;2023-11-19T01:40:19;1.80;;;1.70;;
11731;SDS011;5922;53.734;10.258;2023-11-19T01:42:47;1.70;;;1.60;;
11731;SDS011;5922;53.734;10.258;2023-11-19T01:45:21;1.47;;;1.37;;
11731;SDS011;5922;53.734;10.258;2023-11-19T01:47:49;2.10;;;1.90;;
11731;SDS011;5922;53.734;10.258;2023-11-19T01:50:19;3.57;;;1.57;;
11731;SDS011;5922;53.734;10.258;2023-11-19T01:52:46;1.53;;;1.30;;
11731;SDS011;5922;53.734;10.258;2023-11-19T01:55:16;1.50;;;1.40;;
11731;SDS011;5922;53.734;10.258;2023-11-19T01:57:43;1.30;;;1.20;;
11731;SDS011;5922;53.734;10.258;2023-11-19T02:00:14;1.37;;;1.27;;
11731;SDS011;5922;53.734;10.258;2023-11-19T02:02:44;1.57;;;1.47;;
11731;SDS011;5922;53.734;10.258;2023-11-19T02:05:16;1.40;;;1.30;;
11731;SDS011;5922;53.734;10.258;2023-11-19T02:07:45;1.13;;;1.03;;
11731;SDS011;5922;53.734;10.258;2023-11-19T02:10:17;1.20;;;1.10;;
11731;SDS011;5922;53.734;10.258;2023-11-19T02:12:44;1.30;;;1.20;;
11731;SDS011;5922;53.734;10.258;2023-11-19T02:15:12;1.20;;;1.10;;
11731;SDS011;5922;53.734;10.258;2023-11-19T02:17:40;0.97;;;0.97;;
11731;SDS011;5922;53.734;10.258;2023-11-19T02:20:09;1.47;;;1.10;;
11731;SDS011;5922;53.734;10.258;2023-11-19T02:22:39;0.93;;;0.90;;
11731;SDS011;5922;53.734;10.258;2023-11-19T02:25:10;1.10;;;1.00;;
11731;SDS011;5922;53.734;10.258;2023-11-19T02:27:52;1.23;;;1.13;;
11731;SDS011;5922;53.734;10.258;2023-11-19T02:30:22;2.13;;;1.10;;
11731;SDS011;5922;53.734;10.258;2023-11-19T02:32:53;0.90;;;0.90;;
11731;SDS011;5922;53.734;10.258;2023-11-19T02:35:23;0.93;;;0.83;;
11731;SDS011;5922;53.734;10.258;2023-11-19T02:37:51;3.83;;;1.20;;
11731;SDS011;5922;53.734;10.258;2023-11-19T02:40:20;1.00;;;1.00;;
11731;SDS011;5922;53.734;10.258;2023-11-19T02:42:51;0.70;;;0.70;;
11731;SDS011;5922;53.734;10.258;2023-11-19T02:45:20;0.80;;;0.80;;
11731;SDS011;5922;53.734;10.258;2023-11-19T02:47:50;0.90;;;0.90;;
11731;SDS011;5922;53.734;10.258;2023-11-19T02:50:17;0.70;;;0.70;;
11731;SDS011;5922;53.734;10.258;2023-11-19T02:52:50;0.60;;;0.60;;
11731;SDS011;5922;53.734;10.258;2023-11-19T02:55:21;0.80;;;0.80;;
11731;SDS011;5922;53.734;10.258;2023-11-19T02:57:54;1.10;;;0.80;;
11731;SDS011;5922;53.734;10.258;2023-11-19T03:00:24;0.50;;;0.50;;
11731;SDS011;5922;53.734;10.258;2023-11-19T03:02:59;0.60;;;0.60;;
11731;SDS011;5922;53.734;10.258;2023-11-19T03:05:35;1.60;;;0.70;;
11731;SDS011;5922;53.734;10.258;2023-11-19T03:08:02;1.27;;;0.60;;
11731;SDS011;5922;53.734;10.258;2023-11-19T03:10:29;0.73;;;0.73;;
11731;SDS011;5922;53.734;10.258;2023-11-19T03:12:58;0.50;;;0.50;;
11731;SDS011;5922;53.734;10.258;2023-11-19T03:15:27;0.60;;;0.60;;
11731;SDS011;5922;53.734;10.258;2023-11-19T03:17:59;0.57;;;0.57;;
11731;SDS011;5922;53.734;10.258;2023-11-19T03:20:26;0.87;;;0.50;;
11731;SDS011;5922;53.734;10.258;2023-11-19T03:22:55;0.60;;;0.60;;
11731;SDS011;5922;53.734;10.258;2023-11-19T03:25:24;0.50;;;0.50;;
11731;SDS011;5922;53.734;10.258;2023-11-19T03:27:59;0.60;;;0.60;;
11731;SDS011;5922;53.734;10.258;2023-11-19T03:30:27;0.37;;;0.37;;
11731;SDS011;5922;53.734;10.258;2023-11-19T03:32:54;0.73;;;0.67;;
11731;SDS011;5922;53.734;10.258;2023-11-19T03:35:21;0.63;;;0.63;;
11731;SDS011;5922;53.734;10.258;2023-11-19T03:37:49;0.50;;;0.50;;
11731;SDS011;5922;53.734;10.258;2023-11-19T03:40:19;0.60;;;0.60;;
11731;SDS011;5922;53.734;10.258;2023-11-19T03:42:47;0.60;;;0.60;;
11731;SDS011;5922;53.734;10.258;2023-11-19T03:45:18;0.43;;;0.43;;
11731;SDS011;5922;53.734;10.258;2023-11-19T03:47:45;0.70;;;0.70;;
11731;SDS011;5922;53.734;10.258;2023-11-19T03:50:15;0.60;;;0.60;;
11731;SDS011;5922;53.734;10.258;2023-11-19T03:52:43;0.77;;;0.77;;
11731;SDS011;5922;53.734;10.258;2023-11-19T03:55:10;0.50;;;0.50;;
11731;SDS011;5922;53.734;10.258;2023-11-19T03:57:38;0.90;;;0.90;;
11731;SDS011;5922;53.734;10.258;2023-11-19T04:00:05;0.73;;;0.70;;
11731;SDS011;5922;53.734;10.258;2023-11-19T04:02:36;0.83;;;0.83;;
11731;SDS011;5922;53.734;10.258;2023-11-19T04:05:04;0.80;;;0.80;;
11731;SDS011;5922;53.734;10.258;2023-11-19T04:07:31;0.90;;;0.90;;
11731;SDS011;5922;53.734;10.258;2023-11-19T04:09:59;1.10;;;1.00;;
11731;SDS011;5922;53.734;10.258;2023-11-19T04:12:28;1.20;;;1.10;;
11731;SDS011;5922;53.734;10.258;2023-11-19T04:14:55;0.90;;;0.90;;
11731;SDS011;5922;53.734;10.258;2023-11-19T04:17:26;1.63;;;0.90;;
11731;SDS011;5922;53.734;10.258;2023-11-19T04:19:55;1.37;;;1.10;;
11731;SDS011;5922;53.734;10.258;2023-11-19T04:22:26;1.00;;;1.00;;
11731;SDS011;5922;53.734;10.258;2023-11-19T04:24:53;1.30;;;1.20;;
11731;SDS011;5922;53.734;10.258;2023-11-19T04:27:21;1.00;;;1.00;;
11731;SDS011;5922;53.734;10.258;2023-11-19T04:29:48;1.30;;;1.20;;
11731;SDS011;5922;53.734;10.258;2023-11-19T04:32:16;1.20;;;1.10;;
11731;SDS011;5922;53.734;10.258;2023-11-19T04:34:44;1.27;;;1.27;;
11731;SDS011;5922;53.734;10.258;2023-11-19T04:37:16;1.10;;;1.10;;
11731;SDS011;5922;53.734;10.258;2023-11-19T04:39:47;0.93;;;0.93;;
11731;SDS011;5922;53.734;10.258;2023-11-19T04:42:14;1.50;;;1.40;;
11731;SDS011;5922;53.734;10.258;2023-11-19T04:44:42;1.40;;;1.30;;
11731;SDS011;5922;53.734;10.258;2023-11-19T04:47:10;1.37;;;1.27;;
11731;SDS011;5922;53.734;10.258;2023-11-19T04:49:39;1.60;;;1.50;;
11731;SDS011;5922;53.734;10.258;2023-11-19T04:52:08;1.70;;;1.60;;
11731;SDS011;5922;53.734;10.258;2023-11-19T04:55:02;1.67;;;1.57;;
11731;SDS011;5922;53.734;10.258;2023-11-19T04:57:32;1.50;;;1.40;;
11731;SDS011;5922;53.734;10.258;2023-11-19T05:00:03;3.13;;;1.43;;
11731;SDS011;5922;53.734;10.258;2023-11-19T05:02:33;1.40;;;1.30;;
11731;SDS011;5922;53.734;10.258;2023-11-19T05:05:00;1.50;;;1.40;;
11731;SDS011;5922;53.734;10.258;2023-11-19T05:07:29;2.00;;;1.80;;
11731;SDS011;5922;53.734;10.258;2023-11-19T05:09:57;2.60;;;2.40;;
11731;SDS011;5922;53.734;10.258;2023-11-19T05:12:25;3.17;;;2.87;;
11731;SDS011;5922;53.734;10.258;2023-11-19T05:14:52;5.10;;;3.30;;
11731;SDS011;5922;53.734;10.258;2023-11-19T05:17:19;3.20;;;2.90;;
11731;SDS011;5922;53.734;10.258;2023-11-19T05:19:47;3.30;;;3.00;;
11731;SDS011;5922;53.734;10.258;2023-11-19T05:22:14;4.47;;;3.60;;
11731;SDS011;5922;53.734;10.258;2023-11-19T05:24:43;4.43;;;4.03;;
11731;SDS011;5922;53.734;10.258;2023-11-19T05:27:12;4.50;;;4.10;;
11731;SDS011;5922;53.734;10.258;2023-11-19T05:29:39;8.23;;;5.00;;
11731;SDS011;5922;53.734;10.258;2023-11-19T05:32:10;5.53;;;4.47;;
11731;SDS011;5922;53.734;10.258;2023-11-19T05:34:38;6.03;;;5.13;;
11731;SDS011;5922;53.734;10.258;2023-11-19T05:37:06;7.40;;;5.23;;
11731;SDS011;5922;53.734;10.258;2023-11-19T05:39:35;5.77;;;5.17;;
11731;SDS011;5922;53.734;10.258;2023-11-19T05:42:06;7.10;;;5.20;;
11731;SDS011;5922;53.734;10.258;2023-11-19T05:44:48;9.20;;;5.87;;
11731;SDS011;5922;53.734;10.258;2023-11-19T05:47:17;7.23;;;5.73;;
11731;SDS011;5922;53.734;10.258;2023-11-19T05:49:44;10.80;;;6.33;;
11731;SDS011;5922;53.734;10.258;2023-11-19T05:52:11;7.43;;;6.23;;
11731;SDS011;5922;53.734;10.258;2023-11-19T05:54:41;9.27;;;6.83;;
11731;SDS011;5922;53.734;10.258;2023-11-19T05:57:17;11.47;;;6.63;;
11731;SDS011;5922;53.734;10.258;2023-11-19T05:59:50;10.20;;;7.13;;
11731;SDS011;5922;53.734;10.258;2023-11-19T06:02:19;8.43;;;6.47;;
11731;SDS011;5922;53.734;10.258;2023-11-19T06:04:46;10.53;;;6.97;;
11731;SDS011;5922;53.734;10.258;2023-11-19T06:07:14;11.33;;;7.60;;
11731;SDS011;5922;53.734;10.258;2023-11-19T06:09:42;12.03;;;7.77;;
11731;SDS011;5922;53.734;10.258;2023-11-19T06:12:09;10.47;;;7.30;;
11731;SDS011;5922;53.734;10.258;2023-11-19T06:14:37;12.37;;;7.73;;
11731;SDS011;5922;53.734;10.258;2023-11-19T06:17:06;12.87;;;7.90;;
11731;SDS011;5922;53.734;10.258;2023-11-19T06:19:35;13.33;;;8.00;;
11731;SDS011;5922;53.734;10.258;2023-11-19T06:22:03;15.60;;;8.23;;
11731;SDS011;5922;53.734;10.258;2023-11-19T06:24:30;10.77;;;8.37;;
11731;SDS011;5922;53.734;10.258;2023-11-19T06:26:58;11.50;;;8.50;;
11731;SDS011;5922;53.734;10.258;2023-11-19T06:29:25;12.87;;;8.30;;
11731;SDS011;5922;53.734;10.258;2023-11-19T06:31:52;13.53;;;7.70;;
11731;SDS011;5922;53.734;10.258;2023-11-19T06:34:27;17.17;;;7.70;;
11731;SDS011;5922;53.734;10.258;2023-11-19T06:36:54;14.10;;;7.73;;
11731;SDS011;5922;53.734;10.258;2023-11-19T06:39:22;12.33;;;7.17;;
11731;SDS011;5922;53.734;10.258;2023-11-19T06:41:49;14.83;;;7.73;;
11731;SDS011;5922;53.734;10.258;2023-11-19T06:44:17;12.37;;;7.40;;
11731;SDS011;5922;53.734;10.258;2023-11-19T06:46:44;12.83;;;7.17;;
11731;SDS011;5922;53.734;10.258;2023-11-19T06:49:11;11.53;;;7.23;;
11731;SDS011;5922;53.734;10.258;2023-11-19T06:51:45;13.43;;;7.13;;
11731;SDS011;5922;53.734;10.258;2023-11-19T06:54:13;12.63;;;7.87;;
11731;SDS011;5922;53.734;10.258;2023-11-19T06:56:41;14.20;;;7.50;;
11731;SDS011;5922;53.734;10.258;2023-11-19T06:59:08;12.00;;;7.17;;
11731;SDS011;5922;53.734;10.258;2023-11-19T07:01:36;11.73;;;7.53;;
11731;SDS011;5922;53.734;10.258;2023-11-19T07:04:03;13.03;;;7.70;;
11731;SDS011;5922;53.734;10.258;2023-11-19T07:06:34;17.13;;;7.57;;
11731;SDS011;5922;53.734;10.258;2023-11-19T07:09:03;12.87;;;6.40;;
11731;SDS011;5922;53.734;10.258;2023-11-19T07:11:34;13.10;;;7.07;;
11731;SDS011;5922;53.734;10.258;2023-11-19T07:14:03;13.70;;;6.47;;
11731;SDS011;5922;53.734;10.258;2023-11-19T07:16:31;10.50;;;6.30;;
11731;SDS011;5922;53.734;10.258;2023-11-19T07:19:02;17.00;;;6.70;;
11731;SDS011;5922;53.734;10.258;2023-11-19T07:21:36;11.37;;;6.60;;
11731;SDS011;5922;53.734;10.258;2023-11-19T07:24:10;16.40;;;6.40;;
11731;SDS011;5922;53.734;10.258;2023-11-19T07:26:42;17.10;;;5.90;;
11731;SDS011;5922;53.734;10.258;2023-11-19T07:29:12;14.50;;;5.53;;
11731;SDS011;5922;53.734;10.258;2023-11-19T07:31:40;14.20;;;5.80;;
11731;SDS011;5922;53.734;10.258;2023-11-19T07:34:09;11.87;;;4.80;;
11731;SDS011;5922;53.734;10.258;2023-11-19T07:36:39;13.43;;;4.40;;
11731;SDS011;5922;53.734;10.258;2023-11-19T07:39:08;13.67;;;4.67;;
11731;SDS011;5922;53.734;10.258;2023-11-19T07:41:38;12.60;;;4.27;;
11731;SDS011;5922;53.734;10.258;2023-11-19T07:44:05;14.23;;;3.87;;
11731;SDS011;5922;53.734;10.258;2023-11-19T07:46:33;12.13;;;3.40;;
11731;SDS011;5922;53.734;10.258;2023-11-19T07:49:01;15.10;;;4.07;;
11731;SDS011;5922;53.734;10.258;2023-11-19T07:51:29;10.43;;;3.90;;
11731;SDS011;5922;53.734;10.258;2023-11-19T07:53:56;12.93;;;3.33;;
11731;SDS011;5922;53.734;10.258;2023-11-19T07:56:23;19.37;;;4.00;;
11731;SDS011;5922;53.734;10.258;2023-11-19T07:58:52;17.23;;;4.03;;
11731;SDS011;5922;53.734;10.258;2023-11-19T08:01:19;18.27;;;3.87;;
11731;SDS011;5922;53.734;10.258;2023-11-19T08:03:48;13.30;;;3.80;;
11731;SDS011;5922;53.734;10.258;2023-11-19T08:06:16;14.87;;;4.20;;
11731;SDS011;5922;53.734;10.258;2023-11-19T08:08:43;23.30;;;4.43;;
11731;SDS011;5922;53.734;10.258;2023-11-19T08:11:11;17.20;;;4.40;;
11731;SDS011;5922;53.734;10.258;2023-11-19T08:13:38;11.70;;;3.60;;
11731;SDS011;5922;53.734;10.258;2023-11-19T08:16:08;16.43;;;3.83;;
11731;SDS011;5922;53.734;10.258;2023-11-19T08:18:36;14.20;;;4.23;;
11731;SDS011;5922;53.734;10.258;2023-11-19T08:21:03;15.10;;;3.70;;
11731;SDS011;5922;53.734;10.258;2023-11-19T08:23:30;17.03;;;3.97;;
11731;SDS011;5922;53.734;10.258;2023-11-19T08:25:59;16.07;;;3.87;;
11731;SDS011;5922;53.734;10.258;2023-11-19T08:28:26;19.17;;;4.77;;
11731;SDS011;5922;53.734;10.258;2023-11-19T08:31:09;15.53;;;4.17;;
11731;SDS011;5922;53.734;10.258;2023-11-19T08:33:39;17.23;;;4.93;;
11731;SDS011;5922;53.734;10.258;2023-11-19T08:36:07;25.07;;;4.30;;
11731;SDS011;5922;53.734;10.258;2023-11-19T08:38:34;15.40;;;4.20;;
11731;SDS011;5922;53.734;10.258;2023-11-19T08:41:02;18.73;;;4.40;;
11731;SDS011;5922;53.734;10.258;2023-11-19T08:43:31;13.97;;;3.90;;
11731;SDS011;5922;53.734;10.258;2023-11-19T08:46:01;21.10;;;4.80;;
11731;SDS011;5922;53.734;10.258;2023-11-19T08:48:44;17.23;;;4.90;;
11731;SDS011;5922;53.734;10.258;2023-11-19T08:51:24;16.10;;;4.03;;
11731;SDS011;5922;53.734;10.258;2023-11-19T08:53:53;18.03;;;4.57;;
11731;SDS011;5922;53.734;10.258;2023-11-19T08:56:20;23.43;;;5.23;;
11731;SDS011;5922;53.734;10.258;2023-11-19T09:01:22;21.63;;;4.47;;
11731;SDS011;5922;53.734;10.258;2023-11-19T09:03:51;16.87;;;3.97;;
11731;SDS011;5922;53.734;10.258;2023-11-19T09:06:18;22.17;;;4.97;;
11731;SDS011;5922;53.734;10.258;2023-11-19T09:08:45;19.30;;;4.50;;
11731;SDS011;5922;53.734;10.258;2023-11-19T09:11:13;26.43;;;5.20;;
11731;SDS011;5922;53.734;10.258;2023-11-19T09:13:41;21.90;;;5.03;;
11731;SDS011;5922;53.734;10.258;2023-11-19T09:16:11;17.60;;;4.80;;
11731;SDS011;5922;53.734;10.258;2023-11-19T09:18:38;17.23;;;4.33;;
11731;SDS011;5922;53.734;10.258;2023-11-19T09:21:07;21.03;;;4.87;;
11731;SDS011;5922;53.734;10.258;2023-11-19T09:23:34;19.63;;;4.50;;
11731;SDS011;5922;53.734;10.258;2023-11-19T09:26:04;21.30;;;4.93;;
11731;SDS011;5922;53.734;10.258;2023-11-19T09:28:31;21.63;;;4.80;;
11731;SDS011;5922;53.734;10.258;2023-11-19T09:30:59;16.67;;;5.47;;
11731;SDS011;5922;53.734;10.258;2023-11-19T09:33:29;18.37;;;4.63;;
11731;SDS011;5922;53.734;10.258;2023-11-19T09:35:56;18.23;;;4.70;;
11731;SDS011;5922;53.734;10.258;2023-11-19T09:38:25;23.23;;;4.30;;
11731;SDS011;5922;53.734;10.258;2023-11-19T09:40:52;18.33;;;4.47;;
11731;SDS011;5922;53.734;10.258;2023-11-19T09:43:20;18.13;;;4.20;;
11731;SDS011;5922;53.734;10.258;2023-11-19T09:45:48;17.07;;;4.83;;
11731;SDS011;5922;53.734;10.258;2023-11-19T09:48:16;19.07;;;4.77;;
11731;SDS011;5922;53.734;10.258;2023-11-19T09:50:44;19.63;;;4.53;;
11731;SDS011;5922;53.734;10.258;2023-11-19T09:53:12;29.97;;;5.70;;
11731;SDS011;5922;53.734;10.258;2023-11-19T09:55:42;26.60;;;5.67;;
11731;SDS011;5922;53.734;10.258;2023-11-19T09:58:09;24.43;;;4.67;;
11731;SDS011;5922;53.734;10.258;2023-11-19T10:00:38;20.70;;;4.63;;
11731;SDS011;5922;53.734;10.258;2023-11-19T10:03:06;20.07;;;4.97;;
11731;SDS011;5922;53.734;10.258;2023-11-19T10:05:34;18.80;;;4.47;;
11731;SDS011;5922;53.734;10.258;2023-11-19T10:08:03;22.93;;;4.83;;
11731;SDS011;5922;53.734;10.258;2023-11-19T10:10:31;22.43;;;5.00;;
11731;SDS011;5922;53.734;10.258;2023-11-19T10:13:00;23.63;;;5.17;;
11731;SDS011;5922;53.734;10.258;2023-11-19T10:15:27;19.07;;;5.40;;
11731;SDS011;5922;53.734;10.258;2023-11-19T10:17:55;20.97;;;5.20;;
11731;SDS011;5922;53.734;10.258;2023-11-19T10:20:22;19.00;;;5.03;;
11731;SDS011;5922;53.734;10.258;2023-11-19T10:22:52;24.00;;;6.57;;
11731;SDS011;5922;53.734;10.258;2023-11-19T10:25:23;20.97;;;4.97;;
11731;SDS011;5922;53.734;10.258;2023-11-19T10:27:51;21.50;;;5.53;;
11731;SDS011;5922;53.734;10.258;2023-11-19T10:30:20;20.17;;;5.20;;
11731;SDS011;5922;53.734;10.258;2023-11-19T10:33:00;18.97;;;5.40;;
11731;SDS011;5922;53.734;10.258;2023-11-19T10:35:29;16.60;;;4.03;;
11731;SDS011;5922;53.734;10.258;2023-11-19T10:37:58;24.07;;;5.37;;
11731;SDS011;5922;53.734;10.258;2023-11-19T10:40:37;22.10;;;5.27;;
11731;SDS011;5922;53.734;10.258;2023-11-19T10:43:06;30.67;;;5.60;;
11731;SDS011;5922;53.734;10.258;2023-11-19T10:45:35;22.83;;;5.00;;
11731;SDS011;5922;53.734;10.258;2023-11-19T10:48:03;23.07;;;4.93;;
11731;SDS011;5922;53.734;10.258;2023-11-19T10:50:32;21.33;;;5.50;;
11731;SDS011;5922;53.734;10.258;2023-11-19T10:53:01;21.77;;;5.37;;
11731;SDS011;5922;53.734;10.258;2023-11-19T10:55:30;22.10;;;6.00;;
11731;SDS011;5922;53.734;10.258;2023-11-19T10:57:59;21.00;;;4.97;;
11731;SDS011;5922;53.734;10.258;2023-11-19T11:00:28;27.00;;;5.10;;
11731;SDS011;5922;53.734;10.258;2023-11-19T11:03:01;15.90;;;4.10;;
11731;SDS011;5922;53.734;10.258;2023-11-19T11:05:29;25.13;;;4.67;;
11731;SDS011;5922;53.734;10.258;2023-11-19T11:35:27;15.03;;;4.13;;
11731;SDS011;5922;53.734;10.258;2023-11-19T11:44:08;20.50;;;4.63;;
11731;SDS011;5922;53.734;10.258;2023-11-19T11:46:54;19.10;;;4.67;;
11731;SDS011;5922;53.734;10.258;2023-11-19T11:52:33;17.00;;;4.77;;
11731;SDS011;5922;53.734;10.258;2023-11-19T11:55:04;21.40;;;5.53;;
11731;SDS011;5922;53.734;10.258;2023-11-19T11:57:43;18.37;;;4.97;;
11731;SDS011;5922;53.734;10.258;2023-11-19T12:00:11;26.40;;;5.60;;
11731;SDS011;5922;53.734;10.258;2023-11-19T12:02:38;23.57;;;5.03;;
11731;SDS011;5922;53.734;10.258;2023-11-19T12:05:06;19.53;;;5.27;;
11731;SDS011;5922;53.734;10.258;2023-11-19T12:07:55;19.83;;;4.43;;
11731;SDS011;5922;53.734;10.258;2023-11-19T12:10:24;24.67;;;5.67;;
11731;SDS011;5922;53.734;10.258;2023-11-19T12:12:52;17.33;;;5.20;;
11731;SDS011;5922;53.734;10.258;2023-11-19T12:15:21;23.40;;;5.30;;
11731;SDS011;5922;53.734;10.258;2023-11-19T12:36:04;19.10;;;4.27;;
11731;SDS011;5922;53.734;10.258;2023-11-19T12:38:33;20.03;;;4.73;;
11731;SDS011;5922;53.734;10.258;2023-11-19T12:41:14;17.17;;;4.87;;
11731;SDS011;5922;53.734;10.258;2023-11-19T12:43:48;17.47;;;4.10;;
11731;SDS011;5922;53.734;10.258;2023-11-19T12:46:18;20.27;;;4.70;;
11731;SDS011;5922;53.734;10.258;2023-11-19T12:48:54;13.73;;;3.97;;
11731;SDS011;5922;53.734;10.258;2023-11-19T12:54:30;20.27;;;5.17;;
11731;SDS011;5922;53.734;10.258;2023-11-19T12:57:15;19.60;;;4.07;;
11731;SDS011;5922;53.734;10.258;2023-11-19T13:05:41;22.00;;;5.13;;
11731;SDS011;5922;53.734;10.258;2023-11-19T13:08:09;21.13;;;5.40;;
11731;SDS011;5922;53.734;10.258;2023-11-19T13:10:51;16.77;;;4.30;;
11731;SDS011;5922;53.734;10.258;2023-11-19T13:16:10;25.53;;;5.37;;
11731;SDS011;5922;53.734;10.258;2023-11-19T13:16:42;17.87;;;4.83;;
11731;SDS011;5922;53.734;10.258;2023-11-19T14:21:56;21.13;;;7.07;;
11731;SDS011;5922;53.734;10.258;2023-11-19T14:24:25;20.53;;;5.13;;
11731;SDS011;5922;53.734;10.258;2023-11-19T14:26:58;20.70;;;4.83;;
11731;SDS011;5922;53.734;10.258;2023-11-19T14:29:30;16.23;;;5.03;;
11731;SDS011;5922;53.734;10.258;2023-11-19T14:41:27;19.00;;;5.03;;
11731;SDS011;5922;53.734;10.258;2023-11-19T14:44:03;17.63;;;5.43;;
11731;SDS011;5922;53.734;10.258;2023-11-19T15:06:53;13.97;;;3.87;;
11731;SDS011;5922;53.734;10.258;2023-11-19T15:09:20;13.23;;;4.03;;
11731;SDS011;5922;53.734;10.258;2023-11-19T15:12:00;11.70;;;3.73;;
11731;SDS011;5922;53.734;10.258;2023-11-19T15:30:28;9.40;;;3.33;;
11731;SDS011;5922;53.734;10.258;2023-11-19T15:33:26;8.30;;;3.40;;
11731;SDS011;5922;53.734;10.258;2023-11-19T15:35:53;9.90;;;3.17;;
11731;SDS011;5922;53.734;10.258;2023-11-19T15:51:07;5.83;;;2.30;;
11731;SDS011;5922;53.734;10.258;2023-11-19T16:06:16;4.50;;;1.93;;
11731;SDS011;5922;53.734;10.258;2023-11-19T16:25:32;12.03;;;4.73;;
11731;SDS011;5922;53.734;10.258;2023-11-19T16:28:00;9.87;;;3.20;;
11731;SDS011;5922;53.734;10.258;2023-11-19T16:30:27;8.30;;;3.87;;
11731;SDS011;5922;53.734;10.258;2023-11-19T16:32:56;12.40;;;4.67;;
11731;SDS011;5922;53.734;10.258;2023-11-19T16:35:26;16.30;;;8.80;;
11731;SDS011;5922;53.734;10.258;2023-11-19T16:37:55;6.60;;;3.23;;
11731;SDS011;5922;53.734;10.258;2023-11-19T16:40:22;13.57;;;5.73;;
11731;SDS011;5922;53.734;10.258;2023-11-19T16:42:51;13.00;;;5.30;;
11731;SDS011;5922;53.734;10.258;2023-11-19T16:45:20;16.03;;;6.70;;
11731;SDS011;5922;53.734;10.258;2023-11-19T16:47:47;10.13;;;4.93;;
11731;SDS011;5922;53.734;10.258;2023-11-19T16:50:15;14.40;;;4.07;;
11731;SDS011;5922;53.734;10.258;2023-11-19T16:52:47;12.03;;;4.23;;
11731;SDS011;5922;53.734;10.258;2023-11-19T16:55:14;9.00;;;3.87;;
11731;SDS011;5922;53.734;10.258;2023-11-19T16:57:53;11.03;;;4.10;;
11731;SDS011;5922;53.734;10.258;2023-11-19T17:00:21;9.77;;;3.80;;
11731;SDS011;5922;53.734;10.258;2023-11-19T17:03:02;10.30;;;3.90;;
11731;SDS011;5922;53.734;10.258;2023-11-19T17:05:30;12.50;;;4.00;;
11731;SDS011;5922;53.734;10.258;2023-11-19T17:08:05;11.10;;;3.87;;
11731;SDS011;5922;53.734;10.258;2023-11-19T17:11:01;11.33;;;3.83;;
11731;SDS011;5922;53.734;10.258;2023-11-19T17:13:38;12.53;;;4.40;;
11731;SDS011;5922;53.734;10.258;2023-11-19T17:16:10;11.30;;;4.57;;
11731;SDS011;5922;53.734;10.258;2023-11-19T17:21:49;13.53;;;3.70;;
11731;SDS011;5922;53.734;10.258;2023-11-19T17:24:19;11.67;;;4.17;;
11731;SDS011;5922;53.734;10.258;2023-11-19T17:26:47;11.40;;;3.83;;
11731;SDS011;5922;53.734;10.258;2023-11-19T17:32:07;10.27;;;4.00;;
11731;SDS011;5922;53.734;10.258;2023-11-19T17:34:44;13.60;;;4.10;;
11731;SDS011;5922;53.734;10.258;2023-11-19T17:37:25;10.93;;;4.20;;
11731;SDS011;5922;53.734;10.258;2023-11-19T17:42:51;12.83;;;3.90;;
11731;SDS011;5922;53.734;10.258;2023-11-19T17:45:26;11.70;;;3.93;;
11731;SDS011;5922;53.734;10.258;2023-11-19T17:47:56;9.87;;;3.47;;
11731;SDS011;5922;53.734;10.258;2023-11-19T17:50:35;12.00;;;3.90;;
11731;SDS011;5922;53.734;10.258;2023-11-19T17:53:06;14.43;;;4.20;;
11731;SDS011;5922;53.734;10.258;2023-11-19T17:55:44;10.47;;;3.77;;
11731;SDS011;5922;53.734;10.258;2023-11-19T17:58:26;12.87;;;4.93;;
11731;SDS011;5922;53.734;10.258;2023-11-19T18:00:58;12.93;;;3.73;;
11731;SDS011;5922;53.734;10.258;2023-11-19T18:06:34;11.40;;;4.13;;
11731;SDS011;5922;53.734;10.258;2023-11-19T18:09:02;10.57;;;3.50;;
11731;SDS011;5922;53.734;10.258;2023-11-19T18:14:21;10.90;;;3.60;;
11731;SDS011;5922;53.734;10.258;2023-11-19T18:16:49;9.50;;;3.17;;
11731;SDS011;5922;53.734;10.258;2023-11-19T18:19:16;11.13;;;2.97;;
11731;SDS011;5922;53.734;10.258;2023-11-19T18:21:45;13.77;;;3.70;;
11731;SDS011;5922;53.734;10.258;2023-11-19T18:24:14;10.27;;;3.83;;
11731;SDS011;5922;53.734;10.258;2023-11-19T18:29:38;7.53;;;3.10;;
11731;SDS011;5922;53.734;10.258;2023-11-19T18:32:06;13.20;;;3.53;;
11731;SDS011;5922;53.734;10.258;2023-11-19T18:34:34;11.63;;;3.50;;
11731;SDS011;5922;53.734;10.258;2023-11-19T18:37:06;10.93;;;3.37;;
11731;SDS011;5922;53.734;10.258;2023-11-19T18:39:34;8.27;;;3.77;;
11731;SDS011;5922;53.734;10.258;2023-11-19T18:42:01;10.93;;;3.20;;
11731;SDS011;5922;53.734;10.258;2023-11-19T18:44:30;16.07;;;3.93;;
11731;SDS011;5922;53.734;10.258;2023-11-19T18:46:59;10.23;;;3.20;;
11731;SDS011;5922;53.734;10.258;2023-11-19T18:49:28;9.80;;;3.27;;
11731;SDS011;5922;53.734;10.258;2023-11-19T18:51:55;8.13;;;4.07;;